sensor_id;sensor_type;location;lat;lon;timestamp;pressure;altitude;pressure_sealevel;temperature;humidity
77019;BME280;66044;53.142;17.962;2023-02-05T00:00:36;103170.83;;;-3.53;74.45
77019;BME280;66044;53.142;17.962;2023-02-05T00:03:21;103173.05;;;-3.59;74.86
77019;BME280;66044;53.142;17.962;2023-02-05T00:05:47;103171.93;;;-3.63;74.87
77019;BME280;66044;53.142;17.962;2023-02-05T00:08:13;103175.84;;;-3.65;74.50
77019;BME280;66044;53.142;17.962;2023-02-05T00:10:39;103177.80;;;-3.67;74.34
77019;BME280;66044;53.142;17.962;2023-02-05T00:13:04;103173.80;;;-3.67;74.70
77019;BME280;66044;53.142;17.962;2023-02-05T00:15:39;103177.87;;;-3.68;74.40
77019;BME280;66044;53.142;17.962;2023-02-05T00:18:05;103174.42;;;-3.68;74.37
77019;BME280;66044;53.142;17.962;2023-02-05T00:20:31;103175.52;;;-3.67;74.38
77019;BME280;66044;53.142;17.962;2023-02-05T00:22:57;103180.66;;;-3.64;74.46
77019;BME280;66044;53.142;17.962;2023-02-05T00:25:23;103183.09;;;-3.63;74.64
77019;BME280;66044;53.142;17.962;2023-02-05T00:27:48;103189.06;;;-3.60;73.94
77019;BME280;66044;53.142;17.962;2023-02-05T00:30:14;103193.24;;;-3.60;73.95
77019;BME280;66044;53.142;17.962;2023-02-05T00:32:40;103200.60;;;-3.61;73.85
77019;BME280;66044;53.142;17.962;2023-02-05T00:35:06;103202.23;;;-3.63;74.19
77019;BME280;66044;53.142;17.962;2023-02-05T00:37:32;103209.55;;;-3.66;74.25
77019;BME280;66044;53.142;17.962;2023-02-05T00:39:58;103210.33;;;-3.70;73.99
77019;BME280;66044;53.142;17.962;2023-02-05T00:42:24;103211.41;;;-3.75;73.90
77019;BME280;66044;53.142;17.962;2023-02-05T00:44:49;103214.84;;;-3.78;73.79
77019;BME280;66044;53.142;17.962;2023-02-05T00:47:15;103210.88;;;-3.84;74.41
77019;BME280;66044;53.142;17.962;2023-02-05T00:49:41;103211.84;;;-3.90;73.58
77019;BME280;66044;53.142;17.962;2023-02-05T00:52:07;103209.19;;;-3.96;74.17
77019;BME280;66044;53.142;17.962;2023-02-05T00:54:33;103209.92;;;-4.03;73.98
77019;BME280;66044;53.142;17.962;2023-02-05T00:56:58;103210.79;;;-4.07;73.95
77019;BME280;66044;53.142;17.962;2023-02-05T00:59:24;103210.16;;;-4.13;74.15
77019;BME280;66044;53.142;17.962;2023-02-05T01:01:50;103211.71;;;-4.19;73.70
77019;BME280;66044;53.142;17.962;2023-02-05T01:04:16;103215.67;;;-4.25;74.34
77019;BME280;66044;53.142;17.962;2023-02-05T01:06:42;103216.27;;;-4.31;74.00
77019;BME280;66044;53.142;17.962;2023-02-05T01:09:08;103216.56;;;-4.37;74.28
77019;BME280;66044;53.142;17.962;2023-02-05T01:11:33;103217.02;;;-4.39;74.42
77019;BME280;66044;53.142;17.962;2023-02-05T01:13:59;103211.88;;;-4.40;74.04
77019;BME280;66044;53.142;17.962;2023-02-05T01:16:25;103210.36;;;-4.42;74.41
77019;BME280;66044;53.142;17.962;2023-02-05T01:18:51;103208.70;;;-4.45;74.15
77019;BME280;66044;53.142;17.962;2023-02-05T01:21:22;103206.73;;;-4.46;74.01
77019;BME280;66044;53.142;17.962;2023-02-05T01:23:50;103198.96;;;-4.45;73.90
77019;BME280;66044;53.142;17.962;2023-02-05T01:26:16;103193.27;;;-4.44;74.06
77019;BME280;66044;53.142;17.962;2023-02-05T01:28:44;103190.02;;;-4.45;74.11
77019;BME280;66044;53.142;17.962;2023-02-05T01:31:10;103187.63;;;-4.45;73.82
77019;BME280;66044;53.142;17.962;2023-02-05T01:33:35;103188.17;;;-4.47;73.75
77019;BME280;66044;53.142;17.962;2023-02-05T01:36:01;103192.36;;;-4.51;73.81
77019;BME280;66044;53.142;17.962;2023-02-05T01:38:27;103194.86;;;-4.54;73.85
77019;BME280;66044;53.142;17.962;2023-02-05T01:40:53;103195.96;;;-4.56;73.82
77019;BME280;66044;53.142;17.962;2023-02-05T01:43:18;103195.02;;;-4.59;73.61
77019;BME280;66044;53.142;17.962;2023-02-05T01:45:54;103190.89;;;-4.61;73.77
77019;BME280;66044;53.142;17.962;2023-02-05T01:48:33;103184.23;;;-4.66;73.77
77019;BME280;66044;53.142;17.962;2023-02-05T01:51:05;103179.24;;;-4.70;73.43
77019;BME280;66044;53.142;17.962;2023-02-05T01:53:34;103172.42;;;-4.73;73.58
77019;BME280;66044;53.142;17.962;2023-02-05T01:56:10;103168.36;;;-4.77;73.42
77019;BME280;66044;53.142;17.962;2023-02-05T01:58:46;103164.73;;;-4.81;73.48
77019;BME280;66044;53.142;17.962;2023-02-05T02:01:13;103168.21;;;-4.84;73.31
77019;BME280;66044;53.142;17.962;2023-02-05T02:03:39;103172.80;;;-4.88;73.56
77019;BME280;66044;53.142;17.962;2023-02-05T02:06:05;103171.23;;;-4.91;73.54
77019;BME280;66044;53.142;17.962;2023-02-05T02:08:31;103165.22;;;-4.95;73.89
77019;BME280;66044;53.142;17.962;2023-02-05T02:11:00;103164.23;;;-4.98;73.72
77019;BME280;66044;53.142;17.962;2023-02-05T02:13:28;103170.28;;;-5.00;73.42
77019;BME280;66044;53.142;17.962;2023-02-05T02:15:55;103171.69;;;-5.04;73.71
77019;BME280;66044;53.142;17.962;2023-02-05T02:18:23;103170.52;;;-5.04;73.51
77019;BME280;66044;53.142;17.962;2023-02-05T02:21:53;103158.65;;;-5.03;73.29
77019;BME280;66044;53.142;17.962;2023-02-05T02:26:54;103161.23;;;-5.02;73.37
77019;BME280;66044;53.142;17.962;2023-02-05T02:29:50;103161.98;;;-5.03;73.46
77019;BME280;66044;53.142;17.962;2023-02-05T02:32:36;103169.41;;;-4.99;73.12
77019;BME280;66044;53.142;17.962;2023-02-05T02:35:12;103163.73;;;-4.95;73.60
77019;BME280;66044;53.142;17.962;2023-02-05T02:37:50;103161.23;;;-4.91;73.39
77019;BME280;66044;53.142;17.962;2023-02-05T02:43:09;103158.89;;;-4.89;73.00
77019;BME280;66044;53.142;17.962;2023-02-05T02:45:42;103158.30;;;-4.88;73.09
77019;BME280;66044;53.142;17.962;2023-02-05T02:48:11;103164.81;;;-4.88;73.21
77019;BME280;66044;53.142;17.962;2023-02-05T02:50:42;103160.00;;;-4.89;73.20
77019;BME280;66044;53.142;17.962;2023-02-05T02:53:14;103151.70;;;-4.90;72.98
77019;BME280;66044;53.142;17.962;2023-02-05T02:55:42;103147.70;;;-4.92;73.17
77019;BME280;66044;53.142;17.962;2023-02-05T02:58:31;103148.86;;;-4.95;73.49
77019;BME280;66044;53.142;17.962;2023-02-05T03:00:58;103149.85;;;-5.00;73.59
77019;BME280;66044;53.142;17.962;2023-02-05T03:03:26;103140.15;;;-5.06;73.12
77019;BME280;66044;53.142;17.962;2023-02-05T03:05:55;103133.31;;;-5.13;73.30
77019;BME280;66044;53.142;17.962;2023-02-05T03:08:34;103129.12;;;-5.19;73.33
77019;BME280;66044;53.142;17.962;2023-02-05T03:11:05;103132.02;;;-5.27;73.53
77019;BME280;66044;53.142;17.962;2023-02-05T03:13:35;103130.66;;;-5.29;73.79
77019;BME280;66044;53.142;17.962;2023-02-05T03:16:01;103132.89;;;-5.30;73.44
77019;BME280;66044;53.142;17.962;2023-02-05T03:18:28;103135.41;;;-5.29;73.30
77019;BME280;66044;53.142;17.962;2023-02-05T03:20:58;103138.67;;;-5.27;73.55
77019;BME280;66044;53.142;17.962;2023-02-05T03:23:26;103136.13;;;-5.25;73.35
77019;BME280;66044;53.142;17.962;2023-02-05T03:25:52;103137.96;;;-5.21;73.46
77019;BME280;66044;53.142;17.962;2023-02-05T03:28:18;103141.21;;;-5.20;73.40
77019;BME280;66044;53.142;17.962;2023-02-05T03:30:52;103136.97;;;-5.23;73.32
77019;BME280;66044;53.142;17.962;2023-02-05T03:33:58;103136.20;;;-5.27;73.42
77019;BME280;66044;53.142;17.962;2023-02-05T03:36:42;103138.68;;;-5.31;73.23
77019;BME280;66044;53.142;17.962;2023-02-05T03:39:30;103130.92;;;-5.35;73.37
77019;BME280;66044;53.142;17.962;2023-02-05T03:42:12;103139.38;;;-5.39;73.27
77019;BME280;66044;53.142;17.962;2023-02-05T03:44:59;103139.01;;;-5.42;73.35
77019;BME280;66044;53.142;17.962;2023-02-05T03:50:42;103145.36;;;-5.55;73.44
77019;BME280;66044;53.142;17.962;2023-02-05T03:53:19;103140.33;;;-5.62;73.28
77019;BME280;66044;53.142;17.962;2023-02-05T03:55:52;103135.23;;;-5.68;73.25
77019;BME280;66044;53.142;17.962;2023-02-05T03:58:25;103134.57;;;-5.73;73.18
77019;BME280;66044;53.142;17.962;2023-02-05T04:00:52;103133.86;;;-5.78;73.26
77019;BME280;66044;53.142;17.962;2023-02-05T04:03:18;103136.06;;;-5.82;73.27
77019;BME280;66044;53.142;17.962;2023-02-05T04:05:44;103134.75;;;-5.87;73.43
77019;BME280;66044;53.142;17.962;2023-02-05T04:08:09;103136.44;;;-5.91;73.55
77019;BME280;66044;53.142;17.962;2023-02-05T04:10:35;103138.74;;;-5.97;73.60
77019;BME280;66044;53.142;17.962;2023-02-05T04:13:01;103138.78;;;-6.01;73.37
77019;BME280;66044;53.142;17.962;2023-02-05T04:15:27;103146.89;;;-6.03;73.27
77019;BME280;66044;53.142;17.962;2023-02-05T04:17:53;103152.15;;;-6.02;73.32
77019;BME280;66044;53.142;17.962;2023-02-05T04:20:18;103155.09;;;-6.01;72.92
77019;BME280;66044;53.142;17.962;2023-02-05T04:22:44;103156.14;;;-6.01;73.15
77019;BME280;66044;53.142;17.962;2023-02-05T04:25:10;103153.16;;;-6.00;73.35
77019;BME280;66044;53.142;17.962;2023-02-05T04:27:35;103147.30;;;-5.97;73.45
77019;BME280;66044;53.142;17.962;2023-02-05T04:30:01;103151.09;;;-5.91;73.29
77019;BME280;66044;53.142;17.962;2023-02-05T04:32:27;103149.58;;;-5.89;73.42
77019;BME280;66044;53.142;17.962;2023-02-05T04:34:53;103144.21;;;-5.86;73.87
77019;BME280;66044;53.142;17.962;2023-02-05T04:37:19;103146.46;;;-5.86;73.40
77019;BME280;66044;53.142;17.962;2023-02-05T04:39:46;103151.66;;;-5.87;73.40
77019;BME280;66044;53.142;17.962;2023-02-05T04:42:11;103160.30;;;-5.89;73.42
77019;BME280;66044;53.142;17.962;2023-02-05T04:44:37;103167.91;;;-5.90;73.26
77019;BME280;66044;53.142;17.962;2023-02-05T04:47:03;103175.14;;;-5.93;73.36
77019;BME280;66044;53.142;17.962;2023-02-05T04:49:31;103179.85;;;-5.96;73.38
77019;BME280;66044;53.142;17.962;2023-02-05T04:51:56;103184.27;;;-5.99;73.39
77019;BME280;66044;53.142;17.962;2023-02-05T04:54:22;103186.30;;;-6.03;73.22
77019;BME280;66044;53.142;17.962;2023-02-05T04:56:48;103193.16;;;-6.09;73.03
77019;BME280;66044;53.142;17.962;2023-02-05T04:59:14;103194.73;;;-6.14;72.83
77019;BME280;66044;53.142;17.962;2023-02-05T05:01:39;103195.40;;;-6.20;73.06
77019;BME280;66044;53.142;17.962;2023-02-05T05:04:05;103199.27;;;-6.26;73.11
77019;BME280;66044;53.142;17.962;2023-02-05T05:06:31;103196.91;;;-6.32;73.01
77019;BME280;66044;53.142;17.962;2023-02-05T05:08:57;103200.69;;;-6.35;73.32
77019;BME280;66044;53.142;17.962;2023-02-05T05:11:22;103202.59;;;-6.35;72.99
77019;BME280;66044;53.142;17.962;2023-02-05T05:13:48;103204.92;;;-6.34;73.34
77019;BME280;66044;53.142;17.962;2023-02-05T05:16:16;103197.48;;;-6.31;73.10
77019;BME280;66044;53.142;17.962;2023-02-05T05:18:42;103193.22;;;-6.28;72.94
77019;BME280;66044;53.142;17.962;2023-02-05T05:21:08;103193.02;;;-6.25;72.92
77019;BME280;66044;53.142;17.962;2023-02-05T05:23:36;103193.45;;;-6.20;72.82
77019;BME280;66044;53.142;17.962;2023-02-05T05:26:07;103194.65;;;-6.16;72.86
77019;BME280;66044;53.142;17.962;2023-02-05T05:28:34;103195.13;;;-6.13;72.90
77019;BME280;66044;53.142;17.962;2023-02-05T05:31:16;103195.49;;;-6.07;72.76
77019;BME280;66044;53.142;17.962;2023-02-05T05:33:44;103192.89;;;-6.03;72.90
77019;BME280;66044;53.142;17.962;2023-02-05T05:36:11;103195.67;;;-5.99;72.89
77019;BME280;66044;53.142;17.962;2023-02-05T05:38:37;103199.63;;;-5.97;72.60
77019;BME280;66044;53.142;17.962;2023-02-05T05:41:04;103207.48;;;-5.95;72.39
77019;BME280;66044;53.142;17.962;2023-02-05T05:43:52;103208.77;;;-5.94;72.19
77019;BME280;66044;53.142;17.962;2023-02-05T05:46:21;103215.17;;;-5.94;72.08
77019;BME280;66044;53.142;17.962;2023-02-05T05:48:56;103220.52;;;-5.97;72.18
77019;BME280;66044;53.142;17.962;2023-02-05T05:51:25;103222.93;;;-5.98;72.20
77019;BME280;66044;53.142;17.962;2023-02-05T05:53:52;103226.84;;;-5.97;72.22
77019;BME280;66044;53.142;17.962;2023-02-05T05:56:18;103227.36;;;-5.97;72.15
77019;BME280;66044;53.142;17.962;2023-02-05T05:58:44;103234.80;;;-6.01;72.38
77019;BME280;66044;53.142;17.962;2023-02-05T06:01:13;103238.40;;;-6.06;72.35
77019;BME280;66044;53.142;17.962;2023-02-05T06:03:39;103241.33;;;-6.13;72.29
77019;BME280;66044;53.142;17.962;2023-02-05T06:06:06;103240.66;;;-6.16;72.50
77019;BME280;66044;53.142;17.962;2023-02-05T06:08:33;103242.71;;;-6.19;72.75
77019;BME280;66044;53.142;17.962;2023-02-05T06:10:59;103248.20;;;-6.24;72.66
77019;BME280;66044;53.142;17.962;2023-02-05T06:13:25;103254.51;;;-6.28;72.72
77019;BME280;66044;53.142;17.962;2023-02-05T06:15:51;103262.77;;;-6.32;72.40
77019;BME280;66044;53.142;17.962;2023-02-05T06:18:19;103263.46;;;-6.35;72.66
77019;BME280;66044;53.142;17.962;2023-02-05T06:20:45;103271.38;;;-6.38;72.47
77019;BME280;66044;53.142;17.962;2023-02-05T06:23:11;103279.84;;;-6.37;72.40
77019;BME280;66044;53.142;17.962;2023-02-05T06:25:37;103283.85;;;-6.32;72.54
77019;BME280;66044;53.142;17.962;2023-02-05T06:28:03;103283.45;;;-6.22;72.63
77019;BME280;66044;53.142;17.962;2023-02-05T06:30:29;103281.49;;;-6.15;72.58
77019;BME280;66044;53.142;17.962;2023-02-05T06:32:54;103277.29;;;-6.06;72.46
77019;BME280;66044;53.142;17.962;2023-02-05T06:35:20;103277.34;;;-5.98;72.41
77019;BME280;66044;53.142;17.962;2023-02-05T06:37:46;103278.81;;;-5.88;72.54
77019;BME280;66044;53.142;17.962;2023-02-05T06:40:12;103286.71;;;-5.78;72.24
77019;BME280;66044;53.142;17.962;2023-02-05T06:42:40;103285.80;;;-5.69;72.36
77019;BME280;66044;53.142;17.962;2023-02-05T06:45:06;103281.50;;;-5.60;72.26
77019;BME280;66044;53.142;17.962;2023-02-05T06:47:32;103282.02;;;-5.48;72.39
77019;BME280;66044;53.142;17.962;2023-02-05T06:49:58;103278.95;;;-5.38;72.43
77019;BME280;66044;53.142;17.962;2023-02-05T06:52:23;103280.39;;;-5.32;72.28
77019;BME280;66044;53.142;17.962;2023-02-05T06:54:49;103286.63;;;-5.28;71.87
77019;BME280;66044;53.142;17.962;2023-02-05T06:57:15;103286.84;;;-5.25;72.02
77019;BME280;66044;53.142;17.962;2023-02-05T06:59:40;103289.39;;;-5.24;71.68
77019;BME280;66044;53.142;17.962;2023-02-05T07:02:06;103291.02;;;-5.25;71.95
77019;BME280;66044;53.142;17.962;2023-02-05T07:04:34;103292.89;;;-5.26;71.88
77019;BME280;66044;53.142;17.962;2023-02-05T07:06:59;103293.29;;;-5.26;71.83
77019;BME280;66044;53.142;17.962;2023-02-05T07:09:25;103298.61;;;-5.29;71.44
77019;BME280;66044;53.142;17.962;2023-02-05T07:11:51;103297.90;;;-5.32;71.70
77019;BME280;66044;53.142;17.962;2023-02-05T07:14:17;103297.77;;;-5.34;71.91
77019;BME280;66044;53.142;17.962;2023-02-05T07:16:43;103298.71;;;-5.35;71.59
77019;BME280;66044;53.142;17.962;2023-02-05T07:19:09;103292.00;;;-5.32;71.36
77019;BME280;66044;53.142;17.962;2023-02-05T07:21:35;103296.27;;;-5.28;71.99
77019;BME280;66044;53.142;17.962;2023-02-05T07:24:01;103302.36;;;-5.25;71.70
77019;BME280;66044;53.142;17.962;2023-02-05T07:26:26;103308.42;;;-5.19;71.81
77019;BME280;66044;53.142;17.962;2023-02-05T07:28:52;103311.81;;;-5.10;71.98
77019;BME280;66044;53.142;17.962;2023-02-05T07:31:19;103312.40;;;-4.95;71.92
77019;BME280;66044;53.142;17.962;2023-02-05T07:33:45;103316.62;;;-4.78;72.03
77019;BME280;66044;53.142;17.962;2023-02-05T07:36:14;103324.91;;;-4.57;71.93
77019;BME280;66044;53.142;17.962;2023-02-05T07:38:42;103331.00;;;-4.32;72.12
77019;BME280;66044;53.142;17.962;2023-02-05T07:41:10;103329.99;;;-4.01;71.36
77019;BME280;66044;53.142;17.962;2023-02-05T07:43:36;103330.53;;;-3.58;71.14
77019;BME280;66044;53.142;17.962;2023-02-05T07:46:06;103328.63;;;-2.67;70.48
77019;BME280;66044;53.142;17.962;2023-02-05T07:48:33;103338.95;;;-1.07;68.71
77019;BME280;66044;53.142;17.962;2023-02-05T07:50:59;103342.93;;;0.58;67.33
77019;BME280;66044;53.142;17.962;2023-02-05T07:53:26;103344.10;;;2.15;65.74
77019;BME280;66044;53.142;17.962;2023-02-05T07:55:52;103353.17;;;3.64;64.47
77019;BME280;66044;53.142;17.962;2023-02-05T07:58:18;103358.95;;;5.10;63.11
77019;BME280;66044;53.142;17.962;2023-02-05T08:00:44;103363.29;;;6.41;61.42
77019;BME280;66044;53.142;17.962;2023-02-05T08:03:11;103367.77;;;7.63;60.48
77019;BME280;66044;53.142;17.962;2023-02-05T08:05:38;103376.33;;;8.70;59.25
77019;BME280;66044;53.142;17.962;2023-02-05T08:08:05;103378.77;;;9.72;57.63
77019;BME280;66044;53.142;17.962;2023-02-05T08:10:31;103381.53;;;10.61;56.34
77019;BME280;66044;53.142;17.962;2023-02-05T08:12:57;103385.75;;;11.38;54.59
77019;BME280;66044;53.142;17.962;2023-02-05T08:15:23;103383.59;;;11.97;52.02
77019;BME280;66044;53.142;17.962;2023-02-05T08:17:49;103387.65;;;12.35;50.83
77019;BME280;66044;53.142;17.962;2023-02-05T08:20:15;103386.73;;;12.42;49.91
77019;BME280;66044;53.142;17.962;2023-02-05T08:22:41;103383.73;;;11.94;48.61
77019;BME280;66044;53.142;17.962;2023-02-05T08:25:10;103380.89;;;11.19;47.46
77019;BME280;66044;53.142;17.962;2023-02-05T08:27:37;103382.23;;;10.44;47.91
77019;BME280;66044;53.142;17.962;2023-02-05T08:30:06;103382.50;;;9.69;47.53
77019;BME280;66044;53.142;17.962;2023-02-05T08:32:32;103385.53;;;8.95;47.94
77019;BME280;66044;53.142;17.962;2023-02-05T08:34:58;103383.64;;;8.37;48.73
77019;BME280;66044;53.142;17.962;2023-02-05T08:37:25;103376.18;;;7.99;48.51
77019;BME280;66044;53.142;17.962;2023-02-05T08:39:51;103369.35;;;7.49;49.10
77019;BME280;66044;53.142;17.962;2023-02-05T08:42:17;103373.06;;;7.16;49.68
77019;BME280;66044;53.142;17.962;2023-02-05T08:44:44;103375.80;;;6.92;50.06
77019;BME280;66044;53.142;17.962;2023-02-05T08:47:10;103378.69;;;6.71;50.30
77019;BME280;66044;53.142;17.962;2023-02-05T08:49:36;103383.35;;;6.46;50.32
77019;BME280;66044;53.142;17.962;2023-02-05T08:52:02;103380.90;;;6.11;50.71
77019;BME280;66044;53.142;17.962;2023-02-05T08:54:27;103379.05;;;5.80;50.93
77019;BME280;66044;53.142;17.962;2023-02-05T08:56:53;103376.75;;;5.54;51.33
77019;BME280;66044;53.142;17.962;2023-02-05T08:59:20;103379.04;;;5.26;51.54
77019;BME280;66044;53.142;17.962;2023-02-05T09:01:46;103379.14;;;4.93;51.83
77019;BME280;66044;53.142;17.962;2023-02-05T09:04:14;103374.77;;;4.65;52.26
77019;BME280;66044;53.142;17.962;2023-02-05T09:06:41;103370.27;;;4.35;52.32
77019;BME280;66044;53.142;17.962;2023-02-05T09:09:07;103372.98;;;4.11;52.48
77019;BME280;66044;53.142;17.962;2023-02-05T09:11:33;103370.95;;;3.86;52.63
77019;BME280;66044;53.142;17.962;2023-02-05T09:13:59;103362.27;;;3.64;52.98
77019;BME280;66044;53.142;17.962;2023-02-05T09:16:26;103355.45;;;3.45;53.10
77019;BME280;66044;53.142;17.962;2023-02-05T09:18:56;103355.56;;;3.29;53.30
77019;BME280;66044;53.142;17.962;2023-02-05T09:21:23;103362.48;;;3.17;53.69
77019;BME280;66044;53.142;17.962;2023-02-05T09:23:49;103360.41;;;3.09;54.07
77019;BME280;66044;53.142;17.962;2023-02-05T09:26:15;103363.23;;;3.12;54.20
77019;BME280;66044;53.142;17.962;2023-02-05T09:28:41;103368.80;;;3.20;54.48
77019;BME280;66044;53.142;17.962;2023-02-05T09:31:10;103368.86;;;3.25;54.63
77019;BME280;66044;53.142;17.962;2023-02-05T09:33:37;103368.63;;;3.33;54.89
77019;BME280;66044;53.142;17.962;2023-02-05T09:36:07;103363.71;;;3.46;54.63
77019;BME280;66044;53.142;17.962;2023-02-05T09:38:33;103363.92;;;3.64;54.71
77019;BME280;66044;53.142;17.962;2023-02-05T09:41:03;103356.47;;;3.74;54.43
77019;BME280;66044;53.142;17.962;2023-02-05T09:51:55;103346.17;;;5.02;53.92
77019;BME280;66044;53.142;17.962;2023-02-05T09:54:25;103334.77;;;5.47;53.40
77019;BME280;66044;53.142;17.962;2023-02-05T09:56:55;103328.65;;;5.72;53.15
77019;BME280;66044;53.142;17.962;2023-02-05T09:59:24;103318.15;;;5.76;52.93
77019;BME280;66044;53.142;17.962;2023-02-05T10:02:00;103314.66;;;5.74;53.21
77019;BME280;66044;53.142;17.962;2023-02-05T10:04:27;103313.64;;;5.71;52.85
77019;BME280;66044;53.142;17.962;2023-02-05T10:07:14;103311.32;;;5.56;52.85
77019;BME280;66044;53.142;17.962;2023-02-05T10:12:46;103303.77;;;5.38;52.83
77019;BME280;66044;53.142;17.962;2023-02-05T10:15:36;103300.14;;;5.28;52.71
77019;BME280;66044;53.142;17.962;2023-02-05T10:21:09;103298.23;;;5.04;51.70
77019;BME280;66044;53.142;17.962;2023-02-05T10:24:15;103303.67;;;5.00;51.61
77019;BME280;66044;53.142;17.962;2023-02-05T10:26:49;103302.32;;;4.87;51.47
77019;BME280;66044;53.142;17.962;2023-02-05T10:29:33;103306.42;;;4.74;51.75
77019;BME280;66044;53.142;17.962;2023-02-05T10:35:01;103301.05;;;4.53;51.93
77019;BME280;66044;53.142;17.962;2023-02-05T10:37:36;103304.77;;;4.36;52.15
77019;BME280;66044;53.142;17.962;2023-02-05T10:40:25;103309.59;;;4.24;52.40
77019;BME280;66044;53.142;17.962;2023-02-05T10:42:59;103308.14;;;4.11;52.24
77019;BME280;66044;53.142;17.962;2023-02-05T10:45:28;103307.76;;;3.96;52.63
77019;BME280;66044;53.142;17.962;2023-02-05T10:48:39;103305.64;;;3.96;52.96
77019;BME280;66044;53.142;17.962;2023-02-05T10:51:20;103302.94;;;4.00;53.06
77019;BME280;66044;53.142;17.962;2023-02-05T10:53:47;103299.21;;;4.00;53.07
77019;BME280;66044;53.142;17.962;2023-02-05T10:56:15;103293.85;;;3.98;53.26
77019;BME280;66044;53.142;17.962;2023-02-05T10:58:55;103294.34;;;3.97;53.18
77019;BME280;66044;53.142;17.962;2023-02-05T11:01:24;103301.75;;;3.96;53.54
77019;BME280;66044;53.142;17.962;2023-02-05T11:03:58;103297.90;;;4.01;53.70
77019;BME280;66044;53.142;17.962;2023-02-05T11:06:27;103301.98;;;4.08;53.45
77019;BME280;66044;53.142;17.962;2023-02-05T11:08:54;103301.64;;;4.10;53.73
77019;BME280;66044;53.142;17.962;2023-02-05T11:11:21;103300.13;;;4.10;53.65
77019;BME280;66044;53.142;17.962;2023-02-05T11:13:59;103299.14;;;4.06;53.63
77019;BME280;66044;53.142;17.962;2023-02-05T11:16:40;103291.20;;;4.00;53.70
77019;BME280;66044;53.142;17.962;2023-02-05T11:19:23;103283.72;;;3.96;53.89
77019;BME280;66044;53.142;17.962;2023-02-05T11:21:54;103279.79;;;3.85;53.73
77019;BME280;66044;53.142;17.962;2023-02-05T11:29:44;103281.45;;;3.66;54.29
77019;BME280;66044;53.142;17.962;2023-02-05T11:32:21;103273.43;;;3.65;54.40
77019;BME280;66044;53.142;17.962;2023-02-05T11:35:26;103276.36;;;3.65;54.38
77019;BME280;66044;53.142;17.962;2023-02-05T11:38:06;103270.98;;;3.66;54.30
77019;BME280;66044;53.142;17.962;2023-02-05T11:40:34;103264.79;;;3.61;54.48
77019;BME280;66044;53.142;17.962;2023-02-05T11:43:05;103267.38;;;3.52;54.55
77019;BME280;66044;53.142;17.962;2023-02-05T11:45:34;103269.85;;;3.49;54.73
77019;BME280;66044;53.142;17.962;2023-02-05T11:50:56;103262.04;;;3.50;54.55
77019;BME280;66044;53.142;17.962;2023-02-05T11:53:22;103264.37;;;3.49;54.74
77019;BME280;66044;53.142;17.962;2023-02-05T11:55:56;103258.24;;;3.54;54.76
77019;BME280;66044;53.142;17.962;2023-02-05T11:58:25;103253.48;;;3.57;54.74
77019;BME280;66044;53.142;17.962;2023-02-05T12:00:56;103248.13;;;3.60;55.16
77019;BME280;66044;53.142;17.962;2023-02-05T12:03:24;103245.71;;;3.62;55.19
77019;BME280;66044;53.142;17.962;2023-02-05T12:06:08;103242.66;;;3.67;54.97
77019;BME280;66044;53.142;17.962;2023-02-05T12:19:13;103241.89;;;3.62;54.80
77019;BME280;66044;53.142;17.962;2023-02-05T12:24:47;103238.08;;;3.55;54.99
77019;BME280;66044;53.142;17.962;2023-02-05T12:30:11;103240.58;;;3.49;55.40
77019;BME280;66044;53.142;17.962;2023-02-05T12:41:41;103231.98;;;3.30;55.28
77019;BME280;66044;53.142;17.962;2023-02-05T12:44:22;103226.59;;;3.26;55.37
77019;BME280;66044;53.142;17.962;2023-02-05T12:49:50;103223.58;;;3.24;55.51
77019;BME280;66044;53.142;17.962;2023-02-05T12:52:37;103219.27;;;3.22;55.60
77019;BME280;66044;53.142;17.962;2023-02-05T12:57:45;103233.11;;;3.23;55.58
77019;BME280;66044;53.142;17.962;2023-02-05T13:00:22;103232.54;;;3.22;55.74
77019;BME280;66044;53.142;17.962;2023-02-05T13:06:15;103225.68;;;3.23;56.31
77019;BME280;66044;53.142;17.962;2023-02-05T13:08:55;103226.59;;;3.21;56.57
77019;BME280;66044;53.142;17.962;2023-02-05T13:11:27;103227.77;;;3.18;56.63
77019;BME280;66044;53.142;17.962;2023-02-05T13:17:00;103227.39;;;3.15;56.79
77019;BME280;66044;53.142;17.962;2023-02-05T13:19:36;103232.21;;;3.14;56.80
77019;BME280;66044;53.142;17.962;2023-02-05T13:22:21;103234.30;;;3.13;57.06
77019;BME280;66044;53.142;17.962;2023-02-05T13:25:28;103235.41;;;3.10;57.00
77019;BME280;66044;53.142;17.962;2023-02-05T13:28:32;103234.71;;;3.03;57.13
77019;BME280;66044;53.142;17.962;2023-02-05T13:33:42;103236.30;;;2.98;57.36
77019;BME280;66044;53.142;17.962;2023-02-05T13:38:44;103230.80;;;2.94;57.40
77019;BME280;66044;53.142;17.962;2023-02-05T13:47:29;103240.67;;;2.75;57.60
77019;BME280;66044;53.142;17.962;2023-02-05T13:50:26;103241.24;;;2.65;57.74
77019;BME280;66044;53.142;17.962;2023-02-05T13:53:19;103240.64;;;2.59;57.95
77019;BME280;66044;53.142;17.962;2023-02-05T13:58:24;103247.23;;;2.51;58.36
77019;BME280;66044;53.142;17.962;2023-02-05T14:00:53;103247.40;;;2.49;58.42
77019;BME280;66044;53.142;17.962;2023-02-05T14:03:34;103247.38;;;2.45;58.49
77019;BME280;66044;53.142;17.962;2023-02-05T14:08:49;103251.16;;;2.33;58.74
77019;BME280;66044;53.142;17.962;2023-02-05T14:11:16;103251.16;;;2.26;58.74
77019;BME280;66044;53.142;17.962;2023-02-05T14:16:42;103255.79;;;2.17;58.70
77019;BME280;66044;53.142;17.962;2023-02-05T14:26:56;103282.62;;;1.92;59.14
77019;BME280;66044;53.142;17.962;2023-02-05T14:29:44;103276.66;;;1.84;59.09
77019;BME280;66044;53.142;17.962;2023-02-05T14:32:12;103275.39;;;1.72;59.11
77019;BME280;66044;53.142;17.962;2023-02-05T14:35:36;103275.34;;;1.63;59.43
77019;BME280;66044;53.142;17.962;2023-02-05T14:38:22;103273.69;;;1.53;59.41